Terminal Aerodrome Forecast
Issued by NWS Jackson, MS

Home | Current Version | Previous Version | Text Only | Print | Product List | Glossary On
Versions: 1 2 3 4 5 6 7 8 9 10 11 12 13
599
FTUS44 KMEG 261731
TAFTUP
TAF
KTUP 261731Z 2618/2718 36013KT P6SM VCSH OVC020
     FM262100 01010KT P6SM VCSH SCT050
     FM270100 04007KT P6SM SCT100=

USA.gov is the U.S. government's official web portal to all federal, state and local government web resources and services.